createdAt,value
2018-04-25T00:00:41.789Z,76.00
2018-04-25T00:03:09.858Z,76.20
2018-04-25T00:05:37.897Z,77.00
2018-04-25T00:08:05.989Z,76.40
2018-04-25T00:10:34.060Z,76.00
2018-04-25T00:13:02.144Z,75.60
2018-04-25T00:15:30.206Z,75.90
2018-04-25T00:17:58.461Z,75.50
2018-04-25T00:20:26.550Z,75.60
2018-04-25T00:22:54.627Z,75.30
2018-04-25T00:25:22.725Z,75.30
2018-04-25T00:27:51.861Z,75.40
2018-04-25T00:30:19.941Z,75.40
2018-04-25T00:32:48.237Z,75.30
2018-04-25T00:35:16.613Z,75.50
2018-04-25T00:37:44.661Z,76.00
2018-04-25T00:40:12.716Z,76.70
2018-04-25T00:42:41.513Z,76.70
2018-04-25T00:45:09.574Z,76.90
2018-04-25T00:47:37.649Z,77.30
2018-04-25T00:50:06.066Z,77.30
2018-04-25T00:52:34.108Z,77.80
2018-04-25T00:55:02.193Z,78.40
2018-04-25T00:57:30.589Z,78.40
2018-04-25T00:59:58.628Z,78.40
2018-04-25T01:02:26.692Z,78.40
2018-04-25T01:04:55.080Z,78.30
2018-04-25T01:07:23.266Z,78.50
2018-04-25T01:09:51.338Z,78.50
2018-04-25T01:12:19.397Z,79.30
2018-04-25T01:14:47.456Z,79.40
2018-04-25T01:17:15.556Z,79.30
2018-04-25T01:19:43.817Z,79.80
2018-04-25T01:22:11.901Z,79.60
2018-04-25T01:24:39.992Z,80.00
2018-04-25T01:27:08.383Z,79.60
2018-04-25T01:29:36.425Z,79.10
2018-04-25T01:32:04.597Z,79.30
2018-04-25T01:34:32.653Z,78.60
2018-04-25T01:37:00.737Z,78.30
2018-04-25T01:39:28.845Z,78.30
2018-04-25T01:41:57.992Z,77.30
2018-04-25T01:44:26.056Z,77.40
2018-04-25T01:46:54.104Z,77.50
2018-04-25T01:49:22.557Z,77.70
2018-04-25T01:51:50.629Z,77.90
2018-04-25T01:54:18.700Z,79.20
2018-04-25T01:56:47.389Z,78.80
2018-04-25T01:59:15.457Z,79.10
2018-04-25T02:01:43.509Z,79.70
2018-04-25T02:04:11.572Z,79.80
2018-04-25T02:06:39.674Z,80.90
2018-04-25T02:09:08.516Z,81.00
2018-04-25T02:11:36.945Z,80.80
2018-04-25T02:14:05.031Z,82.40
2018-04-25T02:16:33.905Z,81.40
2018-04-25T02:19:01.989Z,81.50
2018-04-25T02:21:31.116Z,82.30
2018-04-25T02:23:59.223Z,82.20
2018-04-25T02:26:27.589Z,81.40
2018-04-25T02:28:55.653Z,80.50
2018-04-25T02:31:23.737Z,81.10
2018-04-25T02:33:51.821Z,81.40
2018-04-25T02:36:19.901Z,81.40
2018-04-25T02:38:47.985Z,80.90
2018-04-25T02:41:16.864Z,80.80
2018-04-25T02:43:44.930Z,80.80
2018-04-25T02:46:13.102Z,80.80
2018-04-25T02:48:41.421Z,80.90
2018-04-25T02:51:09.461Z,80.30
2018-04-25T02:53:38.334Z,80.10
2018-04-25T02:56:06.713Z,80.00
2018-04-25T02:58:34.789Z,80.10
2018-04-25T03:01:02.855Z,80.00
2018-04-25T03:03:30.953Z,80.10
2018-04-25T03:06:00.021Z,80.00
2018-04-25T03:08:28.096Z,80.10
2018-04-25T03:10:56.192Z,79.90
2018-04-25T03:13:25.053Z,79.80
2018-04-25T03:15:53.149Z,79.80
2018-04-25T03:18:21.222Z,79.80
2018-04-25T03:20:50.057Z,79.50
2018-04-25T03:23:18.159Z,79.50
2018-04-25T03:25:46.253Z,79.70
2018-04-25T03:28:15.013Z,79.60
2018-04-25T03:30:43.100Z,79.70
2018-04-25T03:33:11.156Z,79.70
2018-04-25T03:35:39.264Z,79.80
2018-04-25T03:38:08.093Z,80.40
2018-04-25T03:40:36.877Z,80.40
2018-04-25T03:43:04.949Z,80.50
2018-04-25T03:45:33.661Z,80.50
2018-04-25T03:48:01.765Z,80.50
2018-04-25T03:50:29.845Z,80.70
2018-04-25T03:52:58.728Z,80.40
2018-04-25T03:55:26.769Z,80.40
2018-04-25T03:57:54.868Z,80.60
2018-04-25T04:00:23.190Z,80.40
2018-04-25T04:02:51.264Z,80.70
2018-04-25T04:05:19.312Z,81.00
2018-04-25T04:07:47.768Z,81.00
2018-04-25T04:10:16.014Z,80.80
2018-04-25T04:12:44.117Z,81.00
2018-04-25T04:15:13.153Z,81.10
2018-04-25T04:17:42.254Z,81.00
2018-04-25T04:20:10.993Z,81.20
2018-04-25T04:22:39.994Z,81.50
2018-04-25T04:25:08.861Z,82.20
2018-04-25T04:27:37.857Z,81.70
2018-04-25T04:30:06.544Z,82.60
2018-04-25T04:32:35.228Z,81.40
2018-04-25T04:35:04.296Z,81.40
2018-04-25T04:37:34.003Z,82.20
2018-04-25T04:40:02.951Z,82.40
2018-04-25T04:42:32.837Z,81.40
2018-04-25T04:45:01.521Z,81.30
2018-04-25T04:47:30.496Z,81.70
2018-04-25T04:49:59.525Z,81.20
2018-04-25T04:52:28.423Z,81.30
2018-04-25T04:54:57.293Z,81.00
2018-04-25T04:57:26.181Z,80.90
2018-04-25T04:59:55.398Z,80.50
2018-04-25T05:02:24.553Z,80.00
2018-04-25T05:04:53.276Z,79.80
2018-04-25T05:07:21.946Z,79.40
2018-04-25T05:09:50.959Z,79.00
2018-04-25T05:12:19.561Z,78.60
2018-04-25T05:14:49.416Z,78.00
2018-04-25T05:17:18.305Z,77.80
2018-04-25T05:19:47.133Z,78.10
2018-04-25T05:22:16.229Z,77.60
2018-04-25T05:24:45.079Z,77.30
2018-04-25T05:27:14.676Z,76.70
2018-04-25T05:29:44.613Z,76.20
2018-04-25T05:32:13.523Z,76.20
2018-04-25T05:34:42.274Z,75.90
2018-04-25T05:37:11.363Z,75.40
2018-04-25T05:39:40.191Z,75.00
2018-04-25T05:42:08.913Z,75.20
2018-04-25T05:44:37.673Z,74.70
2018-04-25T05:47:06.525Z,74.70
2018-04-25T05:49:35.240Z,74.10
2018-04-25T05:52:03.845Z,73.90
2018-04-25T05:54:33.116Z,73.20
2018-04-25T05:57:02.349Z,73.20
2018-04-25T05:59:32.758Z,72.60
2018-04-25T06:02:00.789Z,72.50
2018-04-25T06:04:29.787Z,72.10
2018-04-25T06:06:58.703Z,71.30
2018-04-25T06:09:28.937Z,70.10
2018-04-25T06:11:56.991Z,70.00
2018-04-25T06:14:25.805Z,69.80
2018-04-25T06:16:55.599Z,70.10
2018-04-25T06:19:24.061Z,70.10
2018-04-25T06:21:52.132Z,69.10
2018-04-25T06:24:20.189Z,68.50
2018-04-25T06:26:49.120Z,68.50
2018-04-25T06:29:17.193Z,67.60
2018-04-25T06:31:45.727Z,67.20
2018-04-25T06:34:13.822Z,67.20
2018-04-25T06:36:42.623Z,66.00
2018-04-25T06:39:11.125Z,66.10
2018-04-25T06:41:39.995Z,64.60
2018-04-25T06:44:08.787Z,64.60
2018-04-25T06:46:37.554Z,64.30
2018-04-25T06:49:06.352Z,62.90
2018-04-25T06:51:35.051Z,62.50
2018-04-25T06:54:03.912Z,62.30
2018-04-25T06:56:32.648Z,61.60
2018-04-25T06:59:01.494Z,60.80
2018-04-25T07:01:29.575Z,60.10
2018-04-25T07:03:57.641Z,59.50
2018-04-25T07:06:26.649Z,57.90
2018-04-25T07:08:54.722Z,56.50
2018-04-25T07:11:23.421Z,55.00
2018-04-25T07:13:51.757Z,52.50
2018-04-25T07:16:20.440Z,52.70
2018-04-25T07:18:49.477Z,52.00
2018-04-25T07:21:19.045Z,50.70
2018-04-25T07:23:47.158Z,50.40
2018-04-25T07:26:15.829Z,50.40
2018-04-25T07:28:44.925Z,51.00
2018-04-25T07:31:14.713Z,50.90
2018-04-25T07:33:43.810Z,50.80
2018-04-25T07:36:12.816Z,50.70
2018-04-25T07:38:41.167Z,50.30
2018-04-25T07:41:10.093Z,50.50
2018-04-25T07:43:38.762Z,48.70
2018-04-25T07:46:07.879Z,47.80
2018-04-25T07:48:36.765Z,47.60
2018-04-25T07:51:05.643Z,46.80
2018-04-25T07:53:34.347Z,47.60
2018-04-25T07:56:03.408Z,46.30
2018-04-25T07:58:31.713Z,45.80
2018-04-25T08:01:00.481Z,45.40
2018-04-25T08:03:29.252Z,45.40
2018-04-25T08:05:57.961Z,45.00
2018-04-25T08:08:26.856Z,44.70
2018-04-25T08:10:55.661Z,43.80
2018-04-25T08:13:24.359Z,43.00
2018-04-25T08:15:52.925Z,44.90
2018-04-25T08:18:21.808Z,44.60
2018-04-25T08:20:50.386Z,45.30
2018-04-25T08:23:18.984Z,46.20
2018-04-25T08:25:47.809Z,47.60
2018-04-25T08:28:18.198Z,48.90
2018-04-25T08:30:46.724Z,48.90
2018-04-25T08:33:15.665Z,47.80
2018-04-25T08:35:44.265Z,47.80
2018-04-25T08:38:12.864Z,49.20
2018-04-25T08:40:42.247Z,51.60
2018-04-25T08:43:11.528Z,52.20
2018-04-25T08:45:40.632Z,52.30
2018-04-25T08:48:08.709Z,52.70
2018-04-25T08:50:37.499Z,52.90
2018-04-25T08:53:05.670Z,53.50
2018-04-25T08:55:33.765Z,54.20
2018-04-25T08:58:02.633Z,54.20
2018-04-25T09:00:31.319Z,54.10
2018-04-25T09:02:59.383Z,54.20
2018-04-25T09:05:28.176Z,54.60
2018-04-25T09:07:56.267Z,54.90
2018-04-25T09:10:24.341Z,55.00
2018-04-25T09:12:53.201Z,56.10
2018-04-25T09:15:21.768Z,56.00
2018-04-25T09:17:50.474Z,56.70
2018-04-25T09:20:18.988Z,56.00
2018-04-25T09:22:47.948Z,56.50
2018-04-25T09:25:18.093Z,56.40
2018-04-25T09:27:47.564Z,56.20
2018-04-25T09:30:16.280Z,56.70
2018-04-25T09:32:45.945Z,57.30
2018-04-25T09:35:14.649Z,57.20
2018-04-25T09:37:42.696Z,57.70
2018-04-25T09:40:11.388Z,57.70
2018-04-25T09:42:39.974Z,57.50
2018-04-25T09:45:08.596Z,56.50
2018-04-25T09:47:38.098Z,55.90
2018-04-25T09:50:06.177Z,55.90
2018-04-25T09:52:35.008Z,54.60
2018-04-25T09:55:03.084Z,54.60
2018-04-25T09:57:31.783Z,53.70
2018-04-25T10:00:00.723Z,51.90
2018-04-25T10:02:29.573Z,48.50
2018-04-25T10:04:58.087Z,48.40
2018-04-25T10:07:26.772Z,49.00
2018-04-25T10:09:55.664Z,49.70
2018-04-25T10:12:23.731Z,49.70
2018-04-25T10:14:53.900Z,50.40
2018-04-25T10:17:22.825Z,50.40
2018-04-25T10:19:52.413Z,51.20
2018-04-25T10:22:21.345Z,51.20
2018-04-25T10:24:49.417Z,50.90
2018-04-25T10:27:18.205Z,51.10
2018-04-25T10:29:47.527Z,50.50
2018-04-25T10:32:17.213Z,49.30
2018-04-25T10:34:45.921Z,49.30
2018-04-25T10:37:14.760Z,50.70
2018-04-25T10:39:43.562Z,50.70
2018-04-25T10:42:12.157Z,51.70
2018-04-25T10:44:40.912Z,52.80
2018-04-25T10:47:10.313Z,54.00
2018-04-25T10:49:38.999Z,54.00
2018-04-25T10:52:07.709Z,54.80
2018-04-25T10:54:36.250Z,54.80
2018-04-25T10:57:04.977Z,55.60
2018-04-25T10:59:33.418Z,56.50
2018-04-25T11:02:02.466Z,57.00
2018-04-25T11:04:30.863Z,57.00
2018-04-25T11:06:59.610Z,56.90
2018-04-25T11:09:28.195Z,57.00
2018-04-25T11:11:56.929Z,56.40
2018-04-25T11:14:26.612Z,56.60
2018-04-25T11:16:55.379Z,56.60
2018-04-25T11:19:23.656Z,56.10
2018-04-25T11:21:52.386Z,61.20
2018-04-25T11:24:21.869Z,66.60
2018-04-25T11:26:50.342Z,66.60
2018-04-25T11:29:19.114Z,66.50
2018-04-25T11:31:48.212Z,66.10
2018-04-25T11:34:17.562Z,62.30
2018-04-25T11:36:47.728Z,60.40
2018-04-25T11:39:16.328Z,60.30
2018-04-25T11:41:44.414Z,59.40
2018-04-25T11:44:13.268Z,57.40
2018-04-25T11:46:43.373Z,57.90
2018-04-25T11:49:12.007Z,56.80
2018-04-25T11:51:41.318Z,54.60
2018-04-25T11:54:10.882Z,54.40
2018-04-25T11:56:39.701Z,54.30
2018-04-25T11:59:10.229Z,52.80
2018-04-25T12:01:39.882Z,52.80
2018-04-25T12:04:07.952Z,52.80
2018-04-25T12:06:36.453Z,53.40
2018-04-25T12:09:06.144Z,54.30
2018-04-25T12:11:34.789Z,54.40
2018-04-25T12:14:04.380Z,55.20
2018-04-25T12:16:32.961Z,54.50
2018-04-25T12:19:03.156Z,54.90
2018-04-25T12:21:31.781Z,54.80
2018-04-25T12:23:59.861Z,55.80
2018-04-25T12:26:29.453Z,58.10
2018-04-25T12:28:57.552Z,58.10
2018-04-25T12:31:26.509Z,58.20
2018-04-25T12:33:55.288Z,63.90
2018-04-25T12:36:24.111Z,65.40
2018-04-25T12:38:53.473Z,64.30
2018-04-25T12:41:22.153Z,64.20
2018-04-25T12:43:50.245Z,63.40
2018-04-25T12:46:19.108Z,62.90
2018-04-25T12:48:47.601Z,62.80
2018-04-25T12:51:17.341Z,63.20
2018-04-25T12:53:46.345Z,62.60
2018-04-25T12:56:15.837Z,63.40
2018-04-25T12:58:44.412Z,63.30
2018-04-25T13:01:14.084Z,63.60
2018-04-25T13:03:42.807Z,62.70
2018-04-25T13:06:11.797Z,61.00
2018-04-25T13:08:41.117Z,61.20
2018-04-25T13:11:10.179Z,60.20
2018-04-25T13:13:38.589Z,60.00
2018-04-25T13:16:07.984Z,59.50
2018-04-25T13:18:36.823Z,59.40
2018-04-25T13:21:04.899Z,59.40
2018-04-25T13:23:33.680Z,59.10
2018-04-25T13:26:02.517Z,57.30
2018-04-25T13:28:30.602Z,56.10
2018-04-25T13:30:59.469Z,54.80
2018-04-25T13:33:28.049Z,54.20
2018-04-25T13:35:56.121Z,53.30
2018-04-25T13:38:24.192Z,51.90
2018-04-25T13:40:52.293Z,49.00
2018-04-25T13:43:21.161Z,45.90
2018-04-25T13:45:49.970Z,45.80
2018-04-25T13:48:18.825Z,44.50
2018-04-25T13:50:46.913Z,44.40
2018-04-25T13:53:15.187Z,43.80
2018-04-25T13:55:43.909Z,44.90
2018-04-25T13:58:13.144Z,44.20
2018-04-25T14:00:41.968Z,44.20
2018-04-25T14:03:10.756Z,45.80
2018-04-25T14:05:38.822Z,47.00
2018-04-25T14:08:07.820Z,47.50
2018-04-25T14:10:35.913Z,48.10
2018-04-25T14:13:05.521Z,47.30
2018-04-25T14:15:36.019Z,46.20
2018-04-25T14:18:05.237Z,46.20
2018-04-25T14:20:33.995Z,46.30
2018-04-25T14:23:03.017Z,47.00
2018-04-25T14:25:31.855Z,45.40
2018-04-25T14:28:00.389Z,45.30
2018-04-25T14:30:29.450Z,44.50
2018-04-25T14:32:58.319Z,43.50
2018-04-25T14:35:27.123Z,43.00
2018-04-25T14:37:56.059Z,43.60
2018-04-25T14:40:25.720Z,44.80
2018-04-25T14:42:53.804Z,44.80
2018-04-25T14:45:23.035Z,45.20
2018-04-25T14:47:51.880Z,45.80
2018-04-25T14:50:20.813Z,46.80
2018-04-25T14:52:49.676Z,47.10
2018-04-25T14:55:17.761Z,47.30
2018-04-25T14:57:46.253Z,47.20
2018-04-25T15:00:14.305Z,47.70
2018-04-25T15:02:42.406Z,47.80
2018-04-25T15:05:13.286Z,47.70
2018-04-25T15:07:41.328Z,47.60
2018-04-25T15:10:10.304Z,47.50
2018-04-25T15:12:38.388Z,47.40
2018-04-25T15:15:07.210Z,49.30
2018-04-25T15:17:35.338Z,49.30
2018-04-25T15:20:04.181Z,51.10
2018-04-25T15:22:33.073Z,50.60
2018-04-25T15:25:01.132Z,51.80
2018-04-25T15:27:29.861Z,50.90
2018-04-25T15:29:58.834Z,50.90
2018-04-25T15:32:27.717Z,51.00
2018-04-25T15:34:57.424Z,50.90
2018-04-25T15:37:26.237Z,51.00
2018-04-25T15:39:54.308Z,50.30
2018-04-25T15:42:23.376Z,49.70
2018-04-25T15:44:51.461Z,49.30
2018-04-25T15:47:19.549Z,49.30
2018-04-25T15:49:48.541Z,48.40
2018-04-25T15:52:16.613Z,48.70
2018-04-25T15:54:45.576Z,49.40
2018-04-25T15:57:14.469Z,50.10
2018-04-25T15:59:42.554Z,50.60
2018-04-25T16:02:10.641Z,50.40
2018-04-25T16:04:39.546Z,50.10
2018-04-25T16:07:07.585Z,50.10
2018-04-25T16:09:35.673Z,50.80
2018-04-25T16:12:04.546Z,50.90
2018-04-25T16:14:33.353Z,50.60
2018-04-25T16:17:01.466Z,50.50
2018-04-25T16:19:29.463Z,50.70
2018-04-25T16:21:57.878Z,51.00
2018-04-25T16:24:25.945Z,51.50
2018-04-25T16:26:53.992Z,51.90
2018-04-25T16:29:22.090Z,52.00
2018-04-25T16:31:50.144Z,53.10
2018-04-25T16:34:18.729Z,53.70
2018-04-25T16:36:47.529Z,54.40
2018-04-25T16:39:15.601Z,55.20
2018-04-25T16:41:43.676Z,56.90
2018-04-25T16:44:11.739Z,64.90
2018-04-25T16:46:39.816Z,69.30
2018-04-25T16:49:08.577Z,71.80
2018-04-25T16:51:36.661Z,75.00
2018-04-25T16:54:04.720Z,78.00
2018-04-25T16:56:33.125Z,77.20
2018-04-25T16:59:01.197Z,79.00
2018-04-25T17:01:29.272Z,79.70
2018-04-25T17:03:58.133Z,80.00
2018-04-25T17:06:26.192Z,81.50
2018-04-25T17:08:54.265Z,81.10
2018-04-25T17:11:22.336Z,83.20
2018-04-25T17:13:50.409Z,81.70
2018-04-25T17:16:18.929Z,81.30
2018-04-25T17:18:46.973Z,82.60
2018-04-25T17:21:15.069Z,84.00
2018-04-25T17:23:43.452Z,83.50
2018-04-25T17:26:11.521Z,85.70
2018-04-25T17:28:41.185Z,83.00
2018-04-25T17:31:09.510Z,82.90
2018-04-25T17:33:38.340Z,84.10
2018-04-25T17:36:06.381Z,83.90
2018-04-25T17:38:35.665Z,83.50
2018-04-25T17:41:03.902Z,83.20
2018-04-25T17:43:32.324Z,83.30
2018-04-25T17:46:00.372Z,83.10
2018-04-25T17:48:29.401Z,83.50
2018-04-25T17:50:58.234Z,83.80
2018-04-25T17:53:26.336Z,83.80
2018-04-25T17:55:54.437Z,83.70
2018-04-25T17:58:23.912Z,83.20
2018-04-25T18:00:52.833Z,83.20
2018-04-25T18:03:21.839Z,84.30
2018-04-25T18:05:50.580Z,84.20
2018-04-25T18:08:18.689Z,83.40
2018-04-25T18:10:46.761Z,84.10
2018-04-25T18:13:15.616Z,85.40
2018-04-25T18:15:43.720Z,85.40
2018-04-25T18:18:12.569Z,86.00
2018-04-25T18:20:41.492Z,86.00
2018-04-25T18:23:09.577Z,87.10
2018-04-25T18:25:37.640Z,86.40
2018-04-25T18:28:05.721Z,86.80
2018-04-25T18:30:34.613Z,85.00
2018-04-25T18:33:03.460Z,87.70
2018-04-25T18:35:31.877Z,87.30
2018-04-25T18:38:00.781Z,87.60
2018-04-25T18:40:29.617Z,88.00
2018-04-25T18:42:57.895Z,88.00
2018-04-25T18:45:26.009Z,88.90
2018-04-25T18:47:55.573Z,87.90
2018-04-25T18:50:23.680Z,87.90
2018-04-25T18:52:51.728Z,87.00
2018-04-25T18:55:20.104Z,88.10
2018-04-25T18:57:48.180Z,87.50
2018-04-25T19:00:16.244Z,86.60
2018-04-25T19:02:45.171Z,87.20
2018-04-25T19:05:13.224Z,87.70
2018-04-25T19:07:42.030Z,87.80
2018-04-25T19:10:10.097Z,89.10
2018-04-25T19:12:38.144Z,88.80
2018-04-25T19:15:06.553Z,89.20
2018-04-25T19:17:35.413Z,88.90
2018-04-25T19:20:03.506Z,88.80
2018-04-25T19:22:31.555Z,89.20
2018-04-25T19:24:59.649Z,88.80
2018-04-25T19:27:28.334Z,89.20
2018-04-25T19:29:56.405Z,88.30
2018-04-25T19:32:24.481Z,90.00
2018-04-25T19:34:53.657Z,90.20
2018-04-25T19:37:21.744Z,90.10
2018-04-25T19:39:49.791Z,90.20
2018-04-25T19:42:17.859Z,89.90
2018-04-25T19:44:45.933Z,90.10
2018-04-25T19:47:14.017Z,90.10
2018-04-25T19:49:42.501Z,90.40
2018-04-25T19:52:10.601Z,89.90
2018-04-25T19:54:39.448Z,90.20
2018-04-25T19:57:07.833Z,90.20
2018-04-25T19:59:35.912Z,90.20
2018-04-25T20:02:04.529Z,90.20
2018-04-25T20:04:33.377Z,90.40
2018-04-25T20:07:01.469Z,90.40
2018-04-25T20:09:30.058Z,90.40
2018-04-25T20:11:58.133Z,90.50
2018-04-25T20:14:26.205Z,90.30
2018-04-25T20:16:55.392Z,89.90
2018-04-25T20:19:23.464Z,89.90
2018-04-25T20:21:51.547Z,89.60
2018-04-25T20:24:20.748Z,89.90
2018-04-25T20:26:50.855Z,89.50
2018-04-25T20:29:18.924Z,89.50
2018-04-25T20:31:47.817Z,90.00
2018-04-25T20:34:16.693Z,88.90
2018-04-25T20:36:44.752Z,88.80
2018-04-25T20:39:13.153Z,88.40
2018-04-25T20:41:41.200Z,88.50
2018-04-25T20:44:09.271Z,88.60
2018-04-25T20:46:37.373Z,88.70
2018-04-25T20:49:05.461Z,88.80
2018-04-25T20:51:34.342Z,88.50
2018-04-25T20:54:03.305Z,88.40
2018-04-25T20:56:31.377Z,88.70
2018-04-25T20:58:59.477Z,89.10
2018-04-25T21:01:28.339Z,89.10
2018-04-25T21:03:56.407Z,89.00
2018-04-25T21:06:24.501Z,89.70
2018-04-25T21:08:52.564Z,89.00
2018-04-25T21:11:20.649Z,88.50
2018-04-25T21:13:48.694Z,89.20
2018-04-25T21:16:17.046Z,89.80
2018-04-25T21:18:45.109Z,88.90
2018-04-25T21:21:13.354Z,88.60
2018-04-25T21:23:42.525Z,89.70
2018-04-25T21:26:10.594Z,89.60
2018-04-25T21:28:39.457Z,89.30
2018-04-25T21:31:07.514Z,89.50
2018-04-25T21:33:35.605Z,89.50
2018-04-25T21:36:03.976Z,89.50
2018-04-25T21:38:32.040Z,89.90
2018-04-25T21:41:00.133Z,89.80
2018-04-25T21:43:28.224Z,90.00
2018-04-25T21:45:56.292Z,90.00
2018-04-25T21:48:24.377Z,90.20
2018-04-25T21:50:53.259Z,90.30
2018-04-25T21:53:21.309Z,90.40
2018-04-25T21:55:49.369Z,90.40
2018-04-25T21:58:17.489Z,90.50
2018-04-25T22:00:46.317Z,90.60
2018-04-25T22:03:14.388Z,90.60
2018-04-25T22:05:42.780Z,90.60
2018-04-25T22:08:10.839Z,90.70
2018-04-25T22:10:38.910Z,91.20
2018-04-25T22:13:07.404Z,90.90
2018-04-25T22:15:35.478Z,90.90
2018-04-25T22:18:03.565Z,90.90
2018-04-25T22:20:31.945Z,90.80
2018-04-25T22:23:00.044Z,90.90
2018-04-25T22:25:28.118Z,90.90
2018-04-25T22:27:57.269Z,90.70
2018-04-25T22:30:25.345Z,90.70
2018-04-25T22:32:53.416Z,91.00
2018-04-25T22:35:21.827Z,90.90
2018-04-25T22:37:49.905Z,90.90
2018-04-25T22:40:17.977Z,90.90
2018-04-25T22:42:46.825Z,91.20
2018-04-25T22:45:14.885Z,90.80
2018-04-25T22:47:42.953Z,90.90
2018-04-25T22:50:11.814Z,90.90
2018-04-25T22:52:40.662Z,90.70
2018-04-25T22:55:08.717Z,90.70
2018-04-25T22:57:36.818Z,90.50
2018-04-25T23:00:05.381Z,90.70
2018-04-25T23:02:33.472Z,90.80
2018-04-25T23:05:01.549Z,90.60
2018-04-25T23:07:29.601Z,90.80
2018-04-25T23:09:57.656Z,90.80
2018-04-25T23:12:25.984Z,90.80
2018-04-25T23:14:55.077Z,91.30
2018-04-25T23:17:23.913Z,91.50
2018-04-25T23:19:52.093Z,91.50
2018-04-25T23:22:20.177Z,91.50
2018-04-25T23:24:48.285Z,91.40
2018-04-25T23:27:17.153Z,91.50
2018-04-25T23:29:45.224Z,91.50
2018-04-25T23:32:13.269Z,91.40
2018-04-25T23:34:41.596Z,91.30
2018-04-25T23:37:10.456Z,91.40
2018-04-25T23:39:38.533Z,91.30
2018-04-25T23:42:06.888Z,91.40
2018-04-25T23:44:34.943Z,91.30
2018-04-25T23:47:02.993Z,91.30
2018-04-25T23:49:31.053Z,91.20
2018-04-25T23:52:00.013Z,91.40
2018-04-25T23:54:28.064Z,91.40
2018-04-25T23:56:56.853Z,91.40
2018-04-25T23:59:24.933Z,91.40
